Time;durP1;ratioP1;P1;durP2;ratioP2;P2;SDS_P1;SDS_P2;PMS_P1;PMS_P2;Temp;Humidity;BMP_temperature;BMP_pressure;BME280_temperature;BME280_humidity;BME280_pressure;Samples;Min_cycle;Max_cycle;Signal;HPM_P1;HPM_P2
2022/03/09 00:01:26;;;;;;;6.10;4.53;;;-0.80;99.90;;;;;;4954351;28;20102;-68
2022/03/09 00:03:52;;;;;;;6.68;4.40;;;-0.80;99.90;;;;;;4954106;28;20494;-67
2022/03/09 00:06:17;;;;;;;5.75;4.07;;;-0.80;99.90;;;;;;4953996;28;20032;-67
2022/03/09 00:08:43;;;;;;;5.80;4.00;;;-0.80;99.90;;;;;;4954125;28;20028;-68
2022/03/09 00:11:09;;;;;;;4.78;3.65;;;-0.80;99.90;;;;;;4954009;29;20390;-68
2022/03/09 00:13:34;;;;;;;6.60;4.10;;;-0.80;99.90;;;;;;4954074;29;20067;-68
2022/03/09 00:16:00;;;;;;;6.70;3.97;;;-0.90;99.90;;;;;;4953960;29;20374;-68
2022/03/09 00:18:26;;;;;;;6.18;3.80;;;-0.90;99.90;;;;;;4953984;29;20055;-67
2022/03/09 00:20:52;;;;;;;5.40;3.22;;;-0.90;99.90;;;;;;4954222;28;20030;-67
2022/03/09 00:23:21;;;;;;;7.63;3.97;;;-0.80;99.90;;;;;;4953890;28;20483;-67
2022/03/09 00:25:47;;;;;;;6.38;4.15;;;-0.90;99.90;;;;;;4953822;28;20030;-67
2022/03/09 00:28:13;;;;;;;6.93;4.20;;;-0.90;99.90;;;;;;4953844;29;20027;-68
2022/03/09 00:30:38;;;;;;;5.30;4.00;;;-0.90;99.90;;;;;;4953731;29;20047;-67
2022/03/09 00:33:04;;;;;;;6.10;3.97;;;-0.90;99.90;;;;;;4953743;29;20090;-67
2022/03/09 00:35:30;;;;;;;7.32;4.60;;;-0.90;99.90;;;;;;4953883;28;20023;-67
2022/03/09 00:37:56;;;;;;;5.47;4.03;;;-0.90;99.90;;;;;;4957330;28;20087;-67
2022/03/09 00:40:22;;;;;;;8.18;4.10;;;-0.90;99.90;;;;;;4957998;29;20055;-68
2022/03/09 00:42:48;;;;;;;5.47;4.20;;;-0.90;99.90;;;;;;4957701;28;20079;-68
2022/03/09 00:45:14;;;;;;;6.30;4.07;;;-0.90;99.90;;;;;;4957680;28;20023;-68
2022/03/09 00:47:40;;;;;;;7.55;4.38;;;-0.90;99.90;;;;;;4957386;28;20546;-67
2022/03/09 00:50:06;;;;;;;5.38;3.83;;;-1.00;99.90;;;;;;4957607;28;20188;-67
2022/03/09 00:52:33;;;;;;;7.13;3.80;;;-0.90;99.90;;;;;;4957214;28;20050;-67
2022/03/09 00:54:58;;;;;;;5.95;3.72;;;-0.90;99.90;;;;;;4957694;29;20055;-68
2022/03/09 00:57:24;;;;;;;8.15;3.97;;;-0.90;99.90;;;;;;4957284;29;20027;-68
2022/03/09 00:59:50;;;;;;;7.38;4.43;;;-0.90;99.90;;;;;;4957401;29;20031;-68
2022/03/09 01:02:17;;;;;;;8.45;4.03;;;-1.00;99.90;;;;;;4957336;29;20114;-68
2022/03/09 01:04:43;;;;;;;5.72;4.07;;;-0.90;99.90;;;;;;4957173;28;20028;-68
2022/03/09 01:07:08;;;;;;;5.97;3.85;;;-0.90;99.90;;;;;;4957517;28;20082;-68
2022/03/09 01:09:34;;;;;;;5.35;3.83;;;-1.00;99.90;;;;;;4957215;28;20467;-66
2022/03/09 01:12:00;;;;;;;7.60;4.50;;;-1.00;99.90;;;;;;4957373;29;20038;-67
2022/03/09 01:14:25;;;;;;;6.40;4.15;;;-1.00;99.90;;;;;;4957054;29;20523;-66
2022/03/09 01:16:51;;;;;;;9.52;4.53;;;-1.00;99.90;;;;;;4957447;29;20027;-66
2022/03/09 01:19:17;;;;;;;5.82;3.95;;;-1.10;99.90;;;;;;4957459;28;20031;-66
2022/03/09 01:21:43;;;;;;;7.72;4.30;;;-1.10;99.90;;;;;;4957242;28;20034;-66
2022/03/09 01:24:08;;;;;;;8.00;4.32;;;-1.10;99.90;;;;;;4957423;29;20102;-67
2022/03/09 01:26:35;;;;;;;7.45;4.93;;;-1.10;99.90;;;;;;4956793;29;20027;-68
2022/03/09 01:29:01;;;;;;;7.57;4.63;;;-1.10;99.90;;;;;;4956951;28;20024;-68
2022/03/09 01:31:27;;;;;;;7.15;4.95;;;-1.10;99.90;;;;;;4956889;29;20062;-68
2022/03/09 01:33:53;;;;;;;6.95;4.60;;;-1.10;99.90;;;;;;4956788;29;20032;-68
2022/03/09 01:36:18;;;;;;;6.72;4.55;;;-1.10;99.90;;;;;;4955361;28;20035;-68
2022/03/09 01:38:44;;;;;;;8.45;4.45;;;-1.10;99.90;;;;;;4956329;29;20062;-68
2022/03/09 01:41:11;;;;;;;7.75;4.35;;;-1.10;99.90;;;;;;4956905;29;20463;-68
2022/03/09 01:43:38;;;;;;;7.20;4.25;;;-1.00;99.90;;;;;;4956469;28;20664;-68
2022/03/09 01:46:04;;;;;;;5.97;4.25;;;-1.10;99.90;;;;;;4956569;28;20431;-68
2022/03/09 01:48:29;;;;;;;6.10;4.40;;;-1.10;99.90;;;;;;4956451;28;20019;-68
2022/03/09 01:50:55;;;;;;;6.82;4.38;;;-1.10;99.90;;;;;;4956787;28;20065;-67
2022/03/09 01:53:21;;;;;;;9.57;4.28;;;-1.10;99.90;;;;;;4956606;29;20492;-67
2022/03/09 01:55:47;;;;;;;8.57;4.22;;;-1.20;99.90;;;;;;4956542;28;20074;-67
2022/03/09 01:58:13;;;;;;;5.97;4.22;;;-1.20;99.90;;;;;;4956264;28;20023;-68
2022/03/09 02:00:39;;;;;;;5.45;4.35;;;-1.20;99.90;;;;;;4956256;28;20466;-67
2022/03/09 02:03:05;;;;;;;5.30;4.05;;;-1.20;99.90;;;;;;4955013;29;20078;-67
2022/03/09 02:05:30;;;;;;;6.53;3.97;;;-1.20;99.90;;;;;;4956372;28;20038;-67
2022/03/09 02:10:40;;;;;;;6.63;4.22;;;-1.20;99.90;;;;;;4956022;29;20058;-67
2022/03/09 02:13:09;;;;;;;5.72;4.10;;;-1.20;99.90;;;;;;4956271;28;20490;-67
2022/03/09 02:15:35;;;;;;;7.45;4.32;;;-1.20;99.90;;;;;;4956120;29;20031;-67
2022/03/09 02:18:02;;;;;;;6.63;4.88;;;-1.10;99.90;;;;;;4955041;29;20066;-67
2022/03/09 02:20:27;;;;;;;7.00;4.63;;;-1.10;99.90;;;;;;4955787;28;20105;-67
2022/03/09 02:22:53;;;;;;;9.43;4.40;;;-1.10;99.90;;;;;;4956149;28;20051;-66
2022/03/09 02:54:23;;;;;;;7.32;3.83;;;-1.10;99.90;;;;;;4954465;29;20058;-70
2022/03/09 02:56:49;;;;;;;8.50;4.70;;;-1.20;99.90;;;;;;4956041;29;20118;-68
2022/03/09 02:59:14;;;;;;;5.20;3.63;;;-1.10;99.90;;;;;;4954817;28;20483;-68
2022/03/09 03:01:40;;;;;;;5.22;4.05;;;-1.20;99.90;;;;;;4955539;29;20023;-68
2022/03/09 03:37:46;;;;;;;5.78;4.10;;;-1.40;99.90;;;;;;5545733;23;20065;-75
2022/03/09 03:40:12;;;;;;;7.50;4.63;;;-1.40;99.90;;;;;;4973564;28;20034;-75
2022/03/09 03:42:38;;;;;;;8.23;4.40;;;-1.40;99.90;;;;;;4973714;28;20035;-74
2022/03/09 03:45:04;;;;;;;5.20;4.18;;;-1.40;99.90;;;;;;4973736;28;20088;-75
2022/03/09 03:47:30;;;;;;;6.28;4.32;;;-1.30;99.90;;;;;;4969568;28;20106;-75
2022/03/09 03:49:55;;;;;;;7.80;4.18;;;-1.30;99.90;;;;;;4956359;28;20027;-75
2022/03/09 03:52:21;;;;;;;5.68;4.22;;;-1.30;99.90;;;;;;4954049;28;20463;-76
2022/03/09 03:54:47;;;;;;;9.25;5.30;;;-1.30;99.90;;;;;;4954292;29;20030;-76
2022/03/09 03:57:13;;;;;;;6.13;4.25;;;-1.30;99.90;;;;;;4954219;28;20087;-76
2022/03/09 03:59:38;;;;;;;5.53;4.20;;;-1.30;99.90;;;;;;4954093;29;20466;-76
2022/03/09 04:02:04;;;;;;;5.43;3.95;;;-1.30;99.90;;;;;;4954128;29;20030;-76
2022/03/09 04:04:30;;;;;;;6.28;4.32;;;-1.30;99.90;;;;;;4953845;29;20031;-76
2022/03/09 04:06:55;;;;;;;5.43;4.03;;;-1.30;99.90;;;;;;4954363;29;20027;-76
2022/03/09 04:09:21;;;;;;;6.80;4.18;;;-1.30;99.90;;;;;;4953841;29;20542;-76
2022/03/09 04:11:47;;;;;;;6.68;4.40;;;-1.30;99.90;;;;;;4953113;28;20027;-76
2022/03/09 04:14:12;;;;;;;5.72;3.88;;;-1.30;99.90;;;;;;4953887;29;20390;-76
2022/03/09 04:16:38;;;;;;;6.45;4.15;;;-1.30;99.90;;;;;;4953920;28;20023;-76
2022/03/09 04:19:04;;;;;;;7.43;4.07;;;-1.20;99.90;;;;;;4954115;28;20037;-76
2022/03/09 04:21:29;;;;;;;5.18;3.95;;;-1.20;99.90;;;;;;4953700;29;20027;-76
2022/03/09 04:23:55;;;;;;;5.78;3.75;;;-1.20;99.90;;;;;;4954168;28;20114;-76
2022/03/09 04:26:21;;;;;;;7.07;4.45;;;-1.20;99.90;;;;;;4953691;29;20118;-76
2022/03/09 04:28:47;;;;;;;6.80;4.55;;;-1.30;99.90;;;;;;4953910;29;20054;-77
2022/03/09 04:31:12;;;;;;;7.65;5.10;;;-1.40;99.90;;;;;;4954079;29;20478;-76
2022/03/09 04:33:38;;;;;;;8.77;4.20;;;-1.50;99.90;;;;;;4953977;29;20482;-76
2022/03/09 04:36:05;;;;;;;4.88;3.70;;;-1.50;99.90;;;;;;4954063;29;20030;-77
2022/03/09 04:38:30;;;;;;;8.50;4.50;;;-1.60;99.90;;;;;;4953363;28;20055;-77
2022/03/09 04:40:56;;;;;;;7.00;4.82;;;-1.70;99.90;;;;;;4953931;28;20016;-76
2022/03/09 04:43:22;;;;;;;6.80;4.57;;;-1.70;99.90;;;;;;4953850;29;20028;-76
2022/03/09 04:45:47;;;;;;;7.22;4.90;;;-1.70;99.90;;;;;;4953759;29;20032;-76
2022/03/09 04:48:13;;;;;;;8.10;5.30;;;-1.60;99.90;;;;;;4953691;29;20070;-76
2022/03/09 04:50:39;;;;;;;4.68;3.90;;;-1.60;99.90;;;;;;4953830;29;20033;-77
2022/03/09 04:53:05;;;;;;;8.75;4.88;;;-1.70;99.90;;;;;;4953561;28;20450;-78
2022/03/09 04:55:30;;;;;;;6.72;4.78;;;-1.70;99.90;;;;;;4953556;29;20027;-78
2022/03/09 04:57:56;;;;;;;7.25;4.82;;;-1.70;99.90;;;;;;4953517;29;20049;-79
2022/03/09 05:00:22;;;;;;;8.70;5.13;;;-1.70;99.90;;;;;;4953428;29;20048;-76
2022/03/09 05:02:47;;;;;;;6.97;5.10;;;-1.70;99.90;;;;;;4953693;29;20047;-76
2022/03/09 05:05:13;;;;;;;7.68;5.03;;;-1.70;99.90;;;;;;4953456;28;20589;-75
2022/03/09 05:07:44;;;;;;;10.27;4.88;;;-1.70;99.90;;;;;;4953218;28;20069;-75
2022/03/09 05:10:10;;;;;;;;;;;-1.80;99.90;;;;;;4953873;28;20031;-75
2022/03/09 05:12:36;;;;;;;7.03;4.70;;;-1.70;99.90;;;;;;4953075;28;19918;-75
2022/03/09 05:15:05;;;;;;;6.30;4.38;;;-1.70;99.90;;;;;;4952191;29;20026;-75
2022/03/09 05:17:31;;;;;;;7.03;4.65;;;-1.80;99.90;;;;;;4953435;28;20031;-75
2022/03/09 05:19:57;;;;;;;8.05;4.60;;;-1.80;99.90;;;;;;4953638;28;20031;-74
2022/03/09 05:22:23;;;;;;;8.82;5.00;;;-1.90;99.90;;;;;;4954388;28;20034;-76
2022/03/09 05:24:49;;;;;;;9.95;4.80;;;-1.90;99.90;;;;;;4956830;28;20019;-76
2022/03/09 05:27:15;;;;;;;9.50;4.65;;;-1.90;99.90;;;;;;4956731;29;20059;-75
2022/03/09 05:29:41;;;;;;;5.78;4.45;;;-1.90;99.90;;;;;;4956591;28;20073;-77
2022/03/09 05:32:07;;;;;;;8.88;4.25;;;-1.90;99.90;;;;;;4956631;28;20035;-71
2022/03/09 05:34:33;;;;;;;5.43;3.67;;;-1.90;99.90;;;;;;4956376;29;20530;-75
2022/03/09 05:36:59;;;;;;;7.18;4.30;;;-1.90;99.90;;;;;;4956426;28;20033;-72
2022/03/09 05:39:24;;;;;;;6.82;3.80;;;-1.90;99.90;;;;;;4956554;29;20031;-71
2022/03/09 05:41:50;;;;;;;10.52;3.78;;;-1.70;99.90;;;;;;4956384;29;20390;-76
2022/03/09 05:44:16;;;;;;;7.35;4.53;;;-1.40;99.90;;;;;;4956300;29;20034;-68
2022/03/09 05:46:42;;;;;;;10.63;4.82;;;-1.40;99.90;;;;;;4955844;28;20039;-73
2022/03/09 05:49:08;;;;;;;6.97;4.97;;;-1.40;99.90;;;;;;4955642;28;20031;-72
2022/03/09 05:51:34;;;;;;;5.00;3.25;;;-1.40;99.90;;;;;;4955963;28;20023;-76
2022/03/09 05:54:00;;;;;;;4.57;2.88;;;-1.30;99.90;;;;;;4955634;28;20394;-69
2022/03/09 05:56:25;;;;;;;4.35;3.22;;;-1.30;99.90;;;;;;4953002;29;20028;-69
2022/03/09 05:58:51;;;;;;;5.20;3.75;;;-1.30;99.90;;;;;;4955396;29;20035;-69
2022/03/09 06:01:17;;;;;;;5.45;3.63;;;-1.30;99.90;;;;;;4952953;28;20062;-71
2022/03/09 06:03:43;;;;;;;5.72;4.20;;;-1.30;99.90;;;;;;4948928;29;20474;-75
2022/03/09 06:06:09;;;;;;;4.55;3.10;;;-1.40;99.90;;;;;;4950620;29;20082;-76
2022/03/09 06:08:34;;;;;;;5.03;3.13;;;-1.50;99.90;;;;;;4952802;29;20474;-76
2022/03/09 06:11:00;;;;;;;5.20;2.90;;;-1.50;99.90;;;;;;4950399;29;20027;-71
2022/03/09 06:13:26;;;;;;;4.63;3.33;;;-1.60;99.90;;;;;;4940288;29;20487;-71
2022/03/09 06:15:51;;;;;;;5.88;2.88;;;-1.70;99.90;;;;;;4954885;29;20360;-74
2022/03/09 06:18:17;;;;;;;6.03;3.15;;;-1.70;99.90;;;;;;4948572;29;20034;-74
2022/03/09 06:20:43;;;;;;;3.70;2.65;;;-1.70;99.90;;;;;;4952679;29;20091;-69
2022/03/09 06:23:08;;;;;;;4.50;2.85;;;-1.80;99.90;;;;;;4956122;28;20509;-73
2022/03/09 06:25:37;;;;;;;2.75;2.47;;;-1.80;99.90;;;;;;4955664;29;20495;-76
2022/03/09 06:28:03;;;;;;;4.55;3.03;;;-1.80;99.90;;;;;;4955660;29;20139;-76
2022/03/09 06:30:29;;;;;;;3.30;2.63;;;-1.80;99.90;;;;;;4955841;29;20114;-76
2022/03/09 06:32:55;;;;;;;5.07;3.55;;;-1.80;99.90;;;;;;4955877;28;20122;-76
2022/03/09 06:35:20;;;;;;;3.75;2.83;;;-1.80;99.90;;;;;;4954744;28;20039;-76
2022/03/09 06:37:46;;;;;;;3.08;2.58;;;-1.80;99.90;;;;;;4955380;28;20070;-75
2022/03/09 06:40:12;;;;;;;3.97;2.97;;;-1.80;99.90;;;;;;4955794;29;20023;-76
2022/03/09 06:42:38;;;;;;;4.97;2.78;;;-1.80;99.90;;;;;;4955736;29;20027;-76
2022/03/09 06:45:05;;;;;;;5.45;3.28;;;-1.80;99.90;;;;;;4955531;28;20023;-76
2022/03/09 06:47:32;;;;;;;4.47;2.90;;;-1.80;99.90;;;;;;4955546;28;20038;-76
2022/03/09 06:49:58;;;;;;;3.95;2.80;;;-1.80;99.90;;;;;;4955641;28;20106;-75
2022/03/09 06:52:24;;;;;;;6.00;3.08;;;-1.80;99.90;;;;;;4955490;29;20499;-75
2022/03/09 06:54:50;;;;;;;7.03;3.45;;;-1.80;99.90;;;;;;4955565;28;20031;-67
2022/03/09 06:57:16;;;;;;;7.30;2.92;;;-1.80;99.90;;;;;;4955428;28;20031;-70
2022/03/09 06:59:44;;;;;;;5.72;2.92;;;-1.70;99.90;;;;;;4955026;28;20387;-69
2022/03/09 07:02:09;;;;;;;4.00;2.97;;;-1.70;99.90;;;;;;4955318;28;20035;-72
2022/03/09 07:04:35;;;;;;;3.33;2.70;;;-1.80;99.90;;;;;;4955004;28;20652;-71
2022/03/09 07:07:01;;;;;;;4.38;2.97;;;-1.80;99.90;;;;;;4955155;28;20055;-70
2022/03/09 07:09:27;;;;;;;4.97;2.88;;;-1.50;99.90;;;;;;4954842;28;20032;-66
2022/03/09 07:11:53;;;;;;;6.55;4.10;;;-0.80;99.90;;;;;;4955044;28;20497;-69
2022/03/09 07:14:19;;;;;;;4.60;2.75;;;-0.90;99.90;;;;;;4954854;28;20027;-69
2022/03/09 07:16:44;;;;;;;3.88;2.85;;;-1.20;99.90;;;;;;4955003;28;20031;-69
2022/03/09 07:19:10;;;;;;;2.75;2.28;;;-1.30;99.90;;;;;;4955295;29;20371;-68
2022/03/09 07:21:36;;;;;;;3.45;2.55;;;-1.40;99.90;;;;;;4954616;29;20470;-70
2022/03/09 07:24:02;;;;;;;4.22;2.53;;;-1.40;99.90;;;;;;4954736;29;20023;-68
2022/03/09 07:26:27;;;;;;;4.43;2.72;;;-1.50;99.90;;;;;;4954571;28;20034;-70
2022/03/09 07:28:53;;;;;;;4.40;2.40;;;-1.60;99.90;;;;;;4954946;29;20033;-70
2022/03/09 07:31:19;;;;;;;4.00;2.95;;;-1.50;99.90;;;;;;4954687;28;20090;-68
2022/03/09 07:33:44;;;;;;;4.00;2.92;;;-1.50;99.90;;;;;;4954632;29;20038;-68
2022/03/09 07:36:10;;;;;;;2.63;2.35;;;-1.50;99.90;;;;;;4954866;29;20026;-68
2022/03/09 07:38:38;;;;;;;6.40;2.90;;;-1.40;99.90;;;;;;4954171;28;20098;-69
2022/03/09 07:41:04;;;;;;;3.85;2.47;;;-1.50;99.90;;;;;;4954894;28;20423;-70
2022/03/09 07:43:30;;;;;;;6.45;2.58;;;-1.50;99.90;;;;;;4954662;28;20052;-68
2022/03/09 07:45:56;;;;;;;2.78;2.35;;;-1.50;99.90;;;;;;4954484;28;20138;-71
2022/03/09 07:48:21;;;;;;;2.83;2.53;;;-1.50;99.90;;;;;;4953971;29;20015;-71
2022/03/09 07:50:47;;;;;;;5.13;2.65;;;-1.10;99.90;;;;;;4953244;29;20107;-71
2022/03/09 07:53:13;;;;;;;3.85;2.10;;;0.10;99.90;;;;;;4953750;29;20039;-70
2022/03/09 07:55:38;;;;;;;2.45;1.88;;;1.00;99.90;;;;;;4954152;29;20026;-71
2022/03/09 07:58:04;;;;;;;2.67;1.90;;;1.60;99.90;;;;;;4953896;29;20382;-73
2022/03/09 08:00:30;;;;;;;4.13;2.38;;;1.50;99.90;;;;;;4953836;29;20106;-71
2022/03/09 08:02:55;;;;;;;3.55;2.42;;;1.70;99.90;;;;;;4954106;28;20034;-69
2022/03/09 08:05:21;;;;;;;4.30;2.33;;;1.80;99.90;;;;;;4954250;28;20019;-68
2022/03/09 08:07:47;;;;;;;4.63;2.13;;;1.70;99.90;;;;;;4953585;28;20031;-68
2022/03/09 08:10:13;;;;;;;3.05;2.20;;;2.00;99.90;;;;;;4953816;29;20095;-70
2022/03/09 08:12:40;;;;;;;2.33;2.10;;;1.60;99.90;;;;;;4953670;28;20098;-70
2022/03/09 08:15:06;;;;;;;2.50;2.30;;;1.30;99.90;;;;;;4953938;28;20031;-70
2022/03/09 08:17:32;;;;;;;6.47;2.30;;;0.70;99.90;;;;;;4953729;28;20126;-70
2022/03/09 08:19:58;;;;;;;2.78;2.10;;;0.40;99.90;;;;;;4953977;28;20111;-70
2022/03/09 08:22:23;;;;;;;2.65;2.35;;;0.10;99.90;;;;;;4954016;29;20023;-70
2022/03/09 08:24:49;;;;;;;3.03;1.92;;;-0.10;99.90;;;;;;4954073;29;20035;-70
2022/03/09 08:27:15;;;;;;;6.95;2.10;;;-0.20;99.90;;;;;;4954084;29;20444;-70
2022/03/09 08:29:41;;;;;;;2.58;2.05;;;-0.30;99.90;;;;;;4952291;29;20106;-70
2022/03/09 08:32:07;;;;;;;3.40;2.20;;;-0.40;99.90;;;;;;4953742;28;20071;-70
2022/03/09 08:34:33;;;;;;;4.28;2.10;;;-0.40;99.90;;;;;;4953614;28;20027;-69
2022/03/09 08:36:58;;;;;;;3.38;2.00;;;-0.50;99.90;;;;;;4953430;28;20019;-69
2022/03/09 08:39:24;;;;;;;3.38;2.05;;;-0.50;99.90;;;;;;4953673;29;20037;-69
2022/03/09 08:41:50;;;;;;;2.97;1.92;;;-0.50;99.90;;;;;;4953562;29;20027;-70
2022/03/09 08:44:16;;;;;;;2.58;2.30;;;-0.60;99.90;;;;;;4953651;28;20035;-70
2022/03/09 08:46:42;;;;;;;3.70;2.35;;;-0.60;99.90;;;;;;4953715;28;20028;-70
2022/03/09 08:49:08;;;;;;;3.08;2.10;;;-0.60;99.90;;;;;;4954033;28;20570;-71
2022/03/09 08:51:34;;;;;;;3.67;2.50;;;-0.70;99.90;;;;;;4953503;28;20493;-71
2022/03/09 08:54:00;;;;;;;6.53;2.80;;;-0.70;99.90;;;;;;4953877;28;20035;-71
2022/03/09 08:56:28;;;;;;;4.00;2.15;;;-0.80;99.90;;;;;;4953881;28;20039;-71
2022/03/09 08:58:55;;;;;;;5.80;2.90;;;-0.80;99.90;;;;;;4957355;28;20030;-71
2022/03/09 09:01:21;;;;;;;2.97;2.05;;;-0.80;99.90;;;;;;4957563;28;20557;-71
2022/03/09 09:03:47;;;;;;;3.20;2.25;;;-0.80;99.90;;;;;;4956018;29;20395;-71
2022/03/09 09:06:14;;;;;;;3.72;2.17;;;-0.80;99.90;;;;;;4957864;28;20027;-71
2022/03/09 09:08:40;;;;;;;4.75;2.72;;;-0.80;99.90;;;;;;4957197;28;20636;-71
2022/03/09 09:11:06;;;;;;;3.20;2.33;;;-0.70;99.90;;;;;;4957418;28;20027;-71
2022/03/09 09:13:31;;;;;;;2.63;2.10;;;-0.70;99.90;;;;;;4955773;29;20385;-71
2022/03/09 09:15:57;;;;;;;4.70;2.65;;;-0.70;99.90;;;;;;4957469;28;20034;-71
2022/03/09 09:18:23;;;;;;;3.15;2.47;;;-0.70;99.90;;;;;;4957091;28;20474;-71
2022/03/09 09:20:49;;;;;;;2.83;2.13;;;-0.70;99.90;;;;;;4957044;28;20435;-71
2022/03/09 09:23:16;;;;;;;3.72;2.78;;;-0.60;99.90;;;;;;4957112;28;20027;-71
2022/03/09 09:25:42;;;;;;;2.95;2.15;;;-0.60;99.90;;;;;;4955542;29;20031;-71
2022/03/09 09:28:08;;;;;;;2.75;2.20;;;-0.60;99.90;;;;;;4956814;28;20501;-71
2022/03/09 09:30:34;;;;;;;2.05;1.67;;;-0.60;99.90;;;;;;4956692;29;20047;-71
2022/03/09 09:33:00;;;;;;;2.00;1.80;;;-0.60;99.90;;;;;;4957021;28;20038;-71
2022/03/09 09:35:26;;;;;;;2.53;2.22;;;-0.70;99.90;;;;;;4956804;28;20514;-71
2022/03/09 09:37:52;;;;;;;2.95;1.90;;;-0.60;99.90;;;;;;4956426;28;20051;-71
2022/03/09 09:40:18;;;;;;;2.22;2.03;;;-0.70;99.90;;;;;;4956632;29;20470;-71
2022/03/09 09:42:45;;;;;;;3.45;1.85;;;-0.60;99.90;;;;;;4956478;29;20038;-71
2022/03/09 09:45:11;;;;;;;3.60;2.53;;;-0.60;99.90;;;;;;4956629;28;20098;-71
2022/03/09 09:47:37;;;;;;;2.55;1.98;;;-0.60;99.90;;;;;;4956702;29;20110;-71
2022/03/09 09:50:06;;;;;;;3.53;2.53;;;-0.60;99.90;;;;;;4956390;29;20485;-71
2022/03/09 09:52:33;;;;;;;5.60;2.33;;;-0.60;99.90;;;;;;4956279;28;20050;-71
2022/03/09 09:55:00;;;;;;;4.78;2.40;;;-0.60;99.90;;;;;;4956352;28;20487;-71
2022/03/09 09:57:29;;;;;;;3.42;2.40;;;-0.50;99.90;;;;;;4956279;28;20570;-71
2022/03/09 09:59:55;;;;;;;5.38;2.63;;;-0.50;99.90;;;;;;4956507;28;20031;-71
2022/03/09 10:02:21;;;;;;;5.53;2.90;;;-0.40;99.90;;;;;;4956377;28;20023;-72
2022/03/09 10:04:50;;;;;;;3.05;2.40;;;-0.40;99.90;;;;;;4955907;29;20479;-71
2022/03/09 10:07:16;;;;;;;5.63;2.75;;;-0.30;99.90;;;;;;4955955;28;20027;-71
2022/03/09 10:09:42;;;;;;;3.83;2.60;;;-0.30;99.90;;;;;;4954457;28;20027;-71
2022/03/09 10:12:10;;;;;;;4.50;2.45;;;-0.30;99.90;;;;;;4954539;29;20506;-71
2022/03/09 10:14:46;;;;;;;3.70;2.75;;;-0.30;99.90;;;;;;4955517;28;20032;-70
2022/03/09 10:17:12;;;;;;;2.95;2.42;;;-0.30;99.90;;;;;;4955983;28;20027;-71
2022/03/09 10:19:40;;;;;;;4.45;2.53;;;-0.30;99.90;;;;;;4955836;28;20054;-71
2022/03/09 10:22:29;;;;;;;2.40;2.20;;;-0.30;99.90;;;;;;4955884;28;20027;-71
2022/03/09 10:25:16;;;;;;;3.20;2.55;;;-0.20;99.90;;;;;;4955851;28;20030;-71
2022/03/09 10:27:50;;;;;;;2.67;2.10;;;-0.20;99.90;;;;;;4955507;28;20027;-71
2022/03/09 10:30:18;;;;;;;3.65;2.30;;;-0.10;99.90;;;;;;4955525;28;20031;-71
2022/03/09 10:32:53;;;;;;;3.42;2.42;;;-0.10;99.90;;;;;;4955603;28;20036;-71
2022/03/09 10:35:30;;;;;;;2.63;2.08;;;0.00;99.90;;;;;;4955609;28;20078;-71
2022/03/09 10:38:20;;;;;;;2.95;2.30;;;0.00;99.90;;;;;;4955216;28;20078;-71
2022/03/09 10:40:48;;;;;;;2.53;2.20;;;0.00;99.90;;;;;;4949768;28;20495;-71
2022/03/09 10:43:21;;;;;;;3.15;2.20;;;0.10;99.90;;;;;;4955718;28;20046;-71
2022/03/09 10:46:11;;;;;;;2.45;2.15;;;0.10;99.90;;;;;;4955396;28;20026;-71
2022/03/09 10:48:53;;;;;;;3.37;2.13;;;0.00;99.90;;;;;;4955135;28;20031;-71
2022/03/09 10:51:27;;;;;;;5.90;2.13;;;0.00;99.90;;;;;;4955579;28;20042;-71
2022/03/09 10:53:53;;;;;;;3.47;1.90;;;0.00;99.90;;;;;;4955323;28;20102;-71
2022/03/09 10:56:20;;;;;;;2.53;2.33;;;0.00;99.90;;;;;;4955545;28;20027;-71
2022/03/09 10:58:46;;;;;;;2.25;2.03;;;0.10;99.90;;;;;;4955114;29;20027;-71
2022/03/09 11:01:20;;;;;;;2.05;1.85;;;0.10;99.90;;;;;;4955515;28;20387;-71
2022/03/09 11:03:46;;;;;;;3.05;2.25;;;0.10;99.90;;;;;;4955307;28;20023;-71
2022/03/09 11:06:12;;;;;;;2.50;2.30;;;0.20;99.90;;;;;;4955352;28;20367;-71
2022/03/09 11:08:39;;;;;;;7.30;1.80;;;0.30;99.90;;;;;;4955013;28;20032;-69
2022/03/09 11:11:06;;;;;;;2.15;1.95;;;1.40;99.90;;;;;;4955034;28;20035;-70
2022/03/09 11:13:34;;;;;;;8.30;5.35;;;1.60;99.90;;;;;;4955266;28;20372;-66
2022/03/09 11:16:01;;;;;;;2.85;2.40;;;1.20;99.90;;;;;;4954614;28;20020;-65
2022/03/09 11:18:29;;;;;;;3.60;1.80;;;0.80;99.90;;;;;;4955308;28;20035;-63
2022/03/09 11:20:57;;;;;;;3.08;2.40;;;0.50;99.90;;;;;;4954640;28;20028;-63
2022/03/09 11:23:24;;;;;;;2.20;1.95;;;0.30;99.90;;;;;;4954686;28;20023;-63
2022/03/09 11:25:58;;;;;;;4.55;3.35;;;0.10;99.90;;;;;;4954903;28;20027;-65
2022/03/09 11:28:35;;;;;;;27.10;13.48;;;0.00;99.90;;;;;;4953159;29;20098;-65
2022/03/09 11:31:04;;;;;;;9.27;5.20;;;0.00;99.90;;;;;;4951598;29;20123;-66
2022/03/09 11:33:53;;;;;;;7.07;6.28;;;0.00;99.90;;;;;;4953451;28;20042;-66
2022/03/09 11:36:23;;;;;;;5.60;4.00;;;0.00;99.90;;;;;;4953385;29;20031;-66
2022/03/09 11:38:53;;;;;;;4.75;2.92;;;0.00;99.90;;;;;;4954279;28;20051;-66
2022/03/09 11:41:31;;;;;;;3.15;2.40;;;0.00;99.90;;;;;;4954901;28;20031;-65
2022/03/09 11:44:19;;;;;;;4.03;2.60;;;0.00;99.90;;;;;;4954350;29;20102;-66
2022/03/09 11:46:57;;;;;;;3.08;2.67;;;0.00;99.90;;;;;;4950291;28;20034;-65
2022/03/09 11:49:23;;;;;;;3.38;2.55;;;-0.10;99.90;;;;;;4954208;29;20550;-65
2022/03/09 11:52:19;;;;;;;3.85;2.50;;;-0.20;99.90;;;;;;4953724;28;20038;-68
2022/03/09 11:54:59;;;;;;;3.13;2.58;;;-0.20;99.90;;;;;;4954049;28;20031;-67
2022/03/09 11:57:45;;;;;;;3.22;2.33;;;-0.10;99.90;;;;;;4954024;28;20526;-68
2022/03/09 12:00:15;;;;;;;2.63;2.42;;;-0.10;99.90;;;;;;4953995;28;20027;-68
2022/03/09 12:02:55;;;;;;;3.90;2.40;;;-0.10;99.90;;;;;;4953984;28;20024;-68
2022/03/09 12:05:35;;;;;;;3.13;2.45;;;-0.10;99.90;;;;;;4954325;28;20382;-68
2022/03/09 12:08:12;;;;;;;4.25;2.72;;;-0.20;99.90;;;;;;4954216;28;20027;-68
2022/03/09 12:10:54;;;;;;;4.13;2.65;;;-0.20;99.90;;;;;;4954392;28;20031;-68
2022/03/09 12:13:22;;;;;;;5.68;2.67;;;-0.30;99.90;;;;;;4954080;28;20035;-68
2022/03/09 12:16:14;;;;;;;4.25;3.20;;;-0.30;99.90;;;;;;4954031;29;20110;-68
2022/03/09 12:18:46;;;;;;;4.70;2.53;;;-0.30;99.90;;;;;;4953925;28;20027;-68
2022/03/09 12:21:34;;;;;;;6.97;2.88;;;-0.30;99.90;;;;;;4954036;29;20110;-68
2022/03/09 12:24:03;;;;;;;3.75;2.72;;;-0.40;99.90;;;;;;4942913;28;20182;-68
2022/03/09 12:26:51;;;;;;;3.72;2.83;;;-0.40;99.90;;;;;;4953972;29;20055;-69
2022/03/09 12:29:29;;;;;;;12.98;7.55;;;-0.30;99.90;;;;;;4953844;28;20106;-69
2022/03/09 12:32:02;;;;;;;4.57;3.00;;;-0.10;99.90;;;;;;4952944;29;20423;-70
2022/03/09 12:34:31;;;;;;;4.22;3.42;;;0.00;99.90;;;;;;4954175;29;20031;-70
2022/03/09 12:36:58;;;;;;;2.80;2.47;;;0.00;99.90;;;;;;4953520;28;20146;-70
2022/03/09 12:39:24;;;;;;;3.83;2.30;;;0.10;99.90;;;;;;4954158;28;20590;-70
2022/03/09 12:41:55;;;;;;;2.85;2.42;;;0.00;99.90;;;;;;4952336;29;20027;-70
2022/03/09 12:44:22;;;;;;;2.97;2.38;;;0.10;99.90;;;;;;4953735;28;20027;-70
2022/03/09 12:46:50;;;;;;;2.60;2.40;;;0.10;99.90;;;;;;4953066;28;20035;-69
2022/03/09 12:49:28;;;;;;;3.50;2.42;;;0.20;99.90;;;;;;4953833;28;20402;-72
2022/03/09 12:51:56;;;;;;;2.15;1.70;;;0.20;99.90;;;;;;4953105;28;20479;-68
2022/03/09 12:54:33;;;;;;;3.08;2.50;;;0.20;99.90;;;;;;4953059;28;20051;-67
2022/03/09 12:57:21;;;;;;;3.70;2.72;;;0.20;99.90;;;;;;4953671;28;20031;-66
2022/03/09 13:00:09;;;;;;;5.65;3.30;;;0.30;99.90;;;;;;4953252;28;20023;-67
2022/03/09 13:02:52;;;;;;;5.95;2.90;;;0.30;99.90;;;;;;4953287;28;20027;-66
2022/03/09 13:05:23;;;;;;;4.90;2.85;;;0.30;99.90;;;;;;4952772;28;20050;-67
2022/03/09 13:08:03;;;;;;;1.98;1.45;;;0.30;99.90;;;;;;4953076;28;20027;-67
2022/03/09 13:10:30;;;;;;;7.37;3.57;;;0.90;99.90;;;;;;4953441;28;20159;-67
2022/03/09 13:13:02;;;;;;;3.70;2.40;;;2.60;99.90;;;;;;4953037;28;20118;-67
2022/03/09 13:15:59;;;;;;;4.60;2.75;;;2.20;99.90;;;;;;4953342;28;20375;-67
2022/03/09 13:18:33;;;;;;;6.07;2.95;;;1.60;99.90;;;;;;4953202;28;20043;-67
2022/03/09 13:20:59;;;;;;;4.10;2.60;;;1.30;99.90;;;;;;4953230;28;20163;-67
2022/03/09 13:23:25;;;;;;;3.60;2.80;;;1.10;99.90;;;;;;4953572;28;20089;-67
2022/03/09 13:25:51;;;;;;;5.20;2.95;;;0.90;99.90;;;;;;4953357;29;20479;-67
2022/03/09 13:28:28;;;;;;;5.60;2.95;;;0.70;99.90;;;;;;4953553;28;20099;-67
2022/03/09 13:30:55;;;;;;;3.78;3.03;;;0.60;99.90;;;;;;4953479;29;20510;-67
2022/03/09 13:33:24;;;;;;;6.03;3.00;;;0.60;99.90;;;;;;4953417;28;20039;-67
2022/03/09 13:35:52;;;;;;;6.95;3.25;;;0.60;99.90;;;;;;4953218;28;20478;-67
2022/03/09 13:38:24;;;;;;;6.85;3.60;;;0.50;99.90;;;;;;4953176;28;20066;-67
2022/03/09 13:40:51;;;;;;;4.78;3.35;;;0.60;99.90;;;;;;4953099;28;20090;-68
2022/03/09 13:43:17;;;;;;;4.43;3.33;;;0.70;99.90;;;;;;4954307;28;20435;-69
2022/03/09 13:45:43;;;;;;;7.43;3.65;;;0.90;99.90;;;;;;4959425;28;20050;-69
2022/03/09 13:48:23;;;;;;;5.72;3.53;;;0.80;99.90;;;;;;4955970;29;20451;-68
2022/03/09 13:51:00;;;;;;;5.68;3.63;;;0.70;99.90;;;;;;4956432;28;20028;-68
2022/03/09 13:53:34;;;;;;;5.28;4.13;;;0.70;99.90;;;;;;4956159;28;20042;-68
2022/03/09 13:56:02;;;;;;;4.55;3.47;;;0.60;99.90;;;;;;4956340;28;20027;-68
2022/03/09 13:58:38;;;;;;;8.52;4.35;;;0.60;99.90;;;;;;4956509;28;20084;-66
2022/03/09 14:01:11;;;;;;;8.75;4.43;;;0.60;99.90;;;;;;4955712;28;20054;-68